Latest Coastal Weather Observations for Ceduna

IDS60701

Issued at 3:05 pm CST Thursday 17 April 2014 (issued every 10 minutes, with the page automatically refreshed every 10 minutes)

About coastal observations | Map of coastal stations | Coastal observations for SA | Marine services | Other Formats
Station Details ID: 018012 Name: CEDUNA AMO Lat: -32.13 Lon: 133.70 Height: 15.3 m
Data from the previous 72 hours. | See also: Recent months at Ceduna
Date/Time
CST
Temp

°C
Wind Pressure Rain
since 9am
mm
Weather Cloud Vis
km
Sea
Height
m
Swell
Dir
 
Speed
knots
Gust
knots
hPa Trend Height
m
Period
s
Dir
17/03:00pm 23.0 SSW 11 14 1019.8 R 0.0 Fine Mostly clear 30 - - - -
17/02:30pm 23.0 SSW 12 15 1019.9 - 0.0 - - 10 - - - -
17/02:00pm 23.8 SSW 12 16 1020.0 - 0.0 - - 10 - - - -
17/01:30pm 23.2 SSW 12 14 1020.0 - 0.0 - - 10 - - - -
17/01:00pm 24.5 SSW 10 12 1020.3 - 0.0 - - 10 - - - -
17/12:30pm 24.9 SW 7 9 1020.7 - 0.0 - - 10 - - - -
17/12:00pm 24.3 WSW 6 8 1021.1 R 0.0 Fine Mostly clear 30 - - - -
17/11:30am 24.2 WSW 6 8 1021.3 - 0.0 - - 10 - - - -
17/11:00am 24.4 WNW 5 9 1021.4 - 0.0 - - 10 - - - -
17/10:30am 22.3 NW 4 5 1021.5 - 0.0 - - 10 - - - -
17/10:00am 20.4 NW 5 6 1021.9 - 0.0 - - 10 - - - -
17/09:30am 18.1 NW 3 4 1021.8 - 0.0 - - 10 - - - -
17/09:00am 16.9 N 4 5 1021.8 R 0.0 Fine Mostly clear 30 - - - -
17/08:30am 15.1 CALM 0 3 1021.6 - 0.0 - - 10 - - - -
17/08:00am 13.0 CALM 0 0 1021.4 - 0.0 - - 10 - - - -
17/07:30am 9.1 SSE 2 3 1021.1 - 0.0 - - 10 - - - -
17/07:00am 7.7 SSE 4 4 1020.7 - 0.0 - - 10 - - - -
17/06:58am 7.8 SSE 3 4 1020.6 - 0.0 - - 10 - - - -
17/06:30am 7.7 SW 3 4 1020.6 - 0.0 - - 10 - - - -
17/06:00am 8.1 SSW 3 4 1020.4 F 0.0 Fine Clear 30 - - - -
17/05:30am 8.4 CALM 0 0 1020.1 - 0.0 - - 10 - - - -
17/05:00am 8.5 E 3 4 1019.8 - 0.0 - - 10 - - - -
17/04:30am 9.7 NNE 3 5 1019.6 - 0.0 - - 10 - - - -
17/04:00am 9.9 NNE 6 7 1019.6 - 0.0 - - 10 - - - -
17/03:30am 10.1 NE 5 5 1019.7 - 0.0 - - 10 - - - -
17/03:00am 9.5 CALM 0 0 1020.1 S 0.0 - - 10 - - - -
17/02:30am 9.0 CALM 0 0 1020.3 - 0.0 - - 10 - - - -
17/02:00am 9.9 NNE 3 4 1020.3 - 0.0 - - 10 - - - -
17/01:30am 9.9 NE 3 3 1020.5 - 0.0 - - 10 - - - -
17/01:00am 10.7 NE 5 5 1020.5 - 0.0 - - 10 - - - -
17/12:30am 11.1 NNE 4 5 1020.6 - 0.0 - - 10 - - - -
17/12:00am 11.4 NE 4 5 1020.8 F 0.0 - - 10 - - - -
 
Date/Time
CST
Temp

°C
Wind Pressure Rain
since 9am
mm
Weather Cloud Vis
km
Sea
Height
m
Swell
Dir
 
Speed
knots
Gust
knots
hPa Trend Height
m
Period
s
Dir
16/11:30pm 11.5 ENE 5 6 1020.9 - 0.0 - - 10 - - - -
16/11:00pm 11.7 ENE 5 7 1021.1 - 0.0 - - 10 - - - -
16/10:30pm 12.2 NE 6 7 1021.3 - 0.0 - - 10 - - - -
16/10:00pm 12.9 E 4 5 1021.2 - 0.0 - - 10 - - - -
16/09:30pm 13.0 ESE 5 5 1021.2 - 0.0 - - 10 - - - -
16/09:00pm 13.2 SE 5 5 1021.0 F 0.0 - - 10 - - - -
16/08:30pm 13.9 SE 6 7 1020.9 - 0.0 - - 10 - - - -
16/08:00pm 14.2 SE 6 6 1020.7 - 0.0 - - 10 - - - -
16/07:30pm 15.8 SSE 6 7 1020.6 - 0.0 - - 10 - - - -
16/07:00pm 16.6 SSE 7 7 1020.4 - 0.0 - - 10 - - - -
16/06:30pm 17.9 SSE 5 7 1020.3 - 0.0 - - 10 - - - -
16/06:00pm 19.0 S 9 11 1020.1 S 0.0 - - 10 - - - -
16/05:30pm 20.6 S 11 14 1020.0 - 0.0 - - 10 - - - -
16/05:00pm 21.4 SSW 10 12 1019.7 - 0.0 - - 10 - - - -
16/04:30pm 21.5 SW 10 13 1019.6 - 0.0 - - 10 - - - -
16/04:00pm 21.9 SW 13 15 1019.6 - 0.0 - - 10 - - - -
16/03:30pm 22.0 SW 13 16 1019.6 - 0.0 - - 10 - - - -
16/03:00pm 23.0 SW 15 19 1019.7 R 0.0 Fine Clear 30 - - - -
16/02:30pm 23.0 SSW 13 16 1019.6 - 0.0 - - 10 - - - -
16/02:00pm 22.8 SSW 12 14 1019.5 - 0.0 - - 10 - - - -
16/01:30pm 23.8 SSW 10 13 1019.7 - 0.0 - - 10 - - - -
16/01:00pm 24.2 SSW 10 12 1020.0 - 0.0 - - 10 - - - -
16/12:30pm 24.1 SW 8 11 1020.2 - 0.0 - - 10 - - - -
16/12:00pm 24.1 WNW 7 10 1020.5 F 0.0 Fine Clear 30 - - - -
16/11:30am 23.7 WNW 7 9 1020.9 - 0.0 - - 10 - - - -
16/11:00am 23.1 WNW 8 10 1021.2 - 0.0 - - 10 - - - -
16/10:30am 22.1 NW 6 9 1021.4 - 0.0 - - 10 - - - -
16/10:00am 19.9 NW 6 8 1021.7 - 0.0 - - 10 - - - -
16/09:30am 17.0 NNW 4 6 1021.9 - 0.0 - - 10 - - - -
16/09:00am 15.3 NNW 4 6 1021.9 R 0.0 Fine Clear 30 - - - -
16/08:30am 12.8 N 3 4 1021.5 - 0.0 - - 10 - - - -
16/08:00am 10.8 N 2 3 1021.3 - 0.0 - Mostly clear 10 - - - -
16/07:38am 10.1 N 3 4 1020.7 - 0.0 - Mostly clear 10 - - - -
16/07:30am 9.7 N 3 3 1020.7 - 0.0 - Partly cloudy 7 - - - -
16/07:27am 9.4 N 3 4 1020.7 - 0.0 - Partly cloudy 5 - - - -
16/07:00am 9.5 NNE 5 5 1020.5 - 0.0 Fog Cloudy 0.2 - - - -
16/06:30am 9.5 N 5 5 1020.3 - 0.0 - Cloudy 0.1 - - - -
16/06:00am 9.6 NNE 4 5 1020.3 F 0.0 Fog Cloudy 0 - - - -
16/05:30am 9.4 NNE 1 4 1020.3 - 0.0 - Cloudy 0.2 - - - -
16/05:00am 8.8 CALM 0 0 1020.3 - 0.0 - Cloudy 0.1 - - - -
16/04:30am 8.6 NNE 3 4 1020.0 - 0.0 - Cloudy 0.1 - - - -
16/04:00am 8.5 NNE 4 8 1020.2 - 0.0 - Cloudy 0.2 - - - -
16/03:30am 7.7 NNE 4 5 1020.5 - 0.0 - Cloudy 0.2 - - - -
16/03:00am 7.4 N 3 4 1020.9 R 0.0 - Cloudy 0 - - - -
16/02:40am 7.8 N 3 4 1021.1 - 0.0 - Partly cloudy 0.1 - - - -
16/02:30am 8.0 N 4 4 1021.1 - 0.0 - Partly cloudy 0.3 - - - -
16/02:00am 7.7 CALM 0 0 1021.4 - 0.0 - - 0.4 - - - -
16/01:30am 7.8 CALM 0 0 1021.6 - 0.0 - - 0.9 - - - -
16/01:24am 7.7 CALM 0 0 1021.6 - 0.0 - - 5 - - - -
16/01:00am 9.7 CALM 0 0 1021.5 - 0.0 - - 10 - - - -
16/12:30am 9.4 CALM 0 0 1021.7 - 0.0 - - 10 - - - -
16/12:00am 9.6 NNE 3 4 1021.5 F 0.0 - - 10 - - - -
 
Date/Time
CST
Temp

°C
Wind Pressure Rain
since 9am
mm
Weather Cloud Vis
km
Sea
Height
m
Swell
Dir
 
Speed
knots
Gust
knots
hPa Trend Height
m
Period
s
Dir
15/11:30pm 10.6 NNE 5 5 1021.7 - 0.0 - - 10 - - - -
15/11:00pm 10.7 NNE 4 4 1021.9 - 0.0 - - 10 - - - -
15/10:30pm 12.1 ESE 3 4 1022.1 - 0.0 - - 10 - - - -
15/10:00pm 13.4 SSE 5 6 1022.5 - 0.0 - - 10 - - - -
15/09:30pm 13.6 S 4 4 1022.3 - 0.0 - - 10 - - - -
15/09:00pm 14.5 SSE 4 5 1022.0 R 0.0 - - 10 - - - -
15/08:30pm 15.2 S 7 8 1021.9 - 0.0 - - 10 - - - -
15/08:00pm 15.4 S 7 9 1021.9 - 0.0 - - 10 - - - -
15/07:30pm 15.7 S 8 9 1021.6 - 0.0 - - 10 - - - -
15/07:00pm 15.9 S 7 8 1021.3 - 0.0 - - 10 - - - -
15/06:30pm 16.5 SSE 7 10 1020.7 - 0.0 - - 10 - - - -
15/06:00pm 17.3 S 11 15 1020.6 F 0.0 - - 10 - - - -
15/05:30pm 18.2 S 12 15 1020.8 - 0.0 - - 10 - - - -
15/05:00pm 18.6 S 13 17 1021.0 - 0.0 - - 10 - - - -
15/04:30pm 19.1 SSW 14 17 1021.0 - 0.0 - - 10 - - - -
15/04:00pm 19.5 SSW 13 16 1020.8 - 0.0 - - 10 - - - -
15/03:30pm 19.9 SSW 13 17 1020.9 - 0.0 - - 10 - - - -
15/03:00pm 19.9 SSW 14 16 1020.7 F 0.0 Fine Mostly clear 30 - - - -
15/02:30pm 20.2 SSW 13 16 1020.8 - 0.0 - - 10 - - - -
15/02:00pm 20.6 S 12 15 1021.0 - 0.0 - Mostly clear 10 - - - -
15/01:30pm 20.1 S 13 18 1021.5 - 0.0 - Mostly clear 10 - - - -
15/01:00pm 20.9 S 11 15 1022.0 - 0.0 - Mostly clear 10 - - - -
15/12:30pm 20.4 SSE 9 15 1022.4 - 0.0 - Mostly clear 10 - - - -
15/12:00pm 20.9 ESE 9 14 1022.8 F 0.0 Fine Mostly clear 30 - - - -
15/11:30am 20.6 SE 10 13 1023.3 - 0.0 - Mostly clear 10 - - - -
15/11:00am 20.0 SE 11 14 1023.7 - 0.0 - Mostly clear 10 - - - -
15/10:30am 19.3 ESE 10 14 1024.1 - 0.0 - Mostly clear 10 - - - -
15/10:00am 18.1 ESE 12 15 1024.2 - 0.0 - Mostly clear 10 - - - -
15/09:30am 17.2 ESE 10 14 1024.3 - 0.0 - Mostly clear 10 - - - -
15/09:00am 15.9 ESE 10 14 1024.0 F 0.0 Fine Mostly clear 30 - - - -
15/08:30am 14.3 ESE 9 11 1023.8 - 0.0 - - 10 - - - -
15/08:00am 12.6 ESE 7 9 1023.5 - 0.0 - - 10 - - - -
15/07:30am 11.8 ESE 7 9 1023.3 - 0.0 - - 10 - - - -
15/07:00am 11.9 SE 9 11 1022.9 - 0.0 - - 10 - - - -
15/06:30am 11.8 ESE 9 11 1022.8 - 0.0 - - 10 - - - -
15/06:00am 11.6 SE 9 11 1022.9 F 0.0 Fine Partly cloudy 30 - - - -
15/05:30am 11.3 SE 7 10 1023.2 - 0.0 - - 10 - - - -
15/05:00am 10.6 ESE 6 8 1023.3 - 0.0 - - 10 - - - -
15/04:30am 11.2 SE 6 8 1023.1 - 0.0 - - 10 - - - -
15/04:00am 11.0 SE 7 8 1022.7 - 0.0 - - 10 - - - -
15/03:30am 11.5 SE 8 9 1022.6 - 0.0 - - 10 - - - -
15/03:00am 11.6 ESE 8 9 1022.7 R 0.0 - - 10 - - - -
15/02:30am 12.4 SE 8 10 1022.8 - 0.0 - - 10 - - - -
15/02:00am 12.4 ESE 6 8 1023.0 - 0.0 - - 10 - - - -
15/01:30am 13.7 SE 8 11 1023.0 - 0.0 - - 10 - - - -
15/01:00am 14.1 SE 8 9 1023.1 - 0.0 - - 10 - - - -
15/12:30am 14.8 SE 9 10 1022.9 - 0.0 - - 10 - - - -
15/12:00am 15.3 SE 9 12 1022.7 F 0.0 - - 10 - - - -
 
Date/Time
CST
Temp

°C
Wind Pressure Rain
since 9am
mm
Weather Cloud Vis
km
Sea
Height
m
Swell
Dir
 
Speed
knots
Gust
knots
hPa Trend Height
m
Period
s
Dir
14/11:30pm 15.6 SE 9 11 1022.8 - 0.0 - - 10 - - - -
14/11:00pm 16.0 SSE 11 15 1023.1 - 0.0 - - 10 - - - -
14/10:30pm 16.6 SSE 12 15 1023.3 - 0.0 - - 10 - - - -
14/10:00pm 16.5 S 11 13 1023.4 - 0.0 - - 10 - - - -
14/09:30pm 16.7 SSE 11 13 1023.4 - 0.0 - - 10 - - - -
14/09:00pm 16.9 SSE 12 16 1023.4 R 0.0 - - 10 - - - -
14/08:30pm 17.1 S 13 19 1023.3 - 0.0 - - 10 - - - -
14/08:00pm 17.2 S 14 21 1023.1 - 0.0 - - 10 - - - -
14/07:30pm 17.2 S 14 19 1022.8 - 0.0 - - 10 - - - -
14/07:00pm 17.2 S 13 18 1022.3 - 0.0 - - 10 - - - -
14/06:30pm 17.3 S 14 19 1022.2 - 0.0 - - 10 - - - -
14/06:00pm 17.6 S 15 19 1021.8 F 0.0 - - 10 - - - -
14/05:30pm 18.1 S 16 19 1021.8 - 0.0 - - 10 - - - -
14/05:00pm 18.5 S 16 21 1021.6 - 0.0 - - 10 - - - -
14/04:30pm 18.6 S 16 20 1021.5 - 0.0 - - 10 - - - -
14/04:00pm 18.7 S 15 21 1021.6 - 0.0 - - 10 - - - -
14/03:30pm 18.7 S 14 19 1021.7 - 0.0 - - 10 - - - -

Other Formats:

Comma delimited format used in spreadsheet applications
http://www.bom.gov.au/fwo/IDS60701/IDS60701.94653.axf

JavaScript Object Notation format (JSON) in row-major order
http://www.bom.gov.au/fwo/IDS60701/IDS60701.94653.json